createdAt,value
2018-09-26T00:01:01.908Z,3.80
2018-09-26T00:03:37.641Z,3.80
2018-09-26T00:06:05.833Z,3.80
2018-09-26T00:08:33.980Z,3.80
2018-09-26T00:11:02.974Z,3.80
2018-09-26T00:13:31.132Z,3.80
2018-09-26T00:15:59.403Z,3.70
2018-09-26T00:18:27.536Z,3.70
2018-09-26T00:20:55.704Z,3.60
2018-09-26T00:23:23.845Z,3.60
2018-09-26T00:25:51.997Z,3.60
2018-09-26T00:28:20.128Z,3.60
2018-09-26T00:30:48.284Z,3.50
2018-09-26T00:33:16.450Z,3.50
2018-09-26T00:35:44.643Z,3.30
2018-09-26T00:38:12.757Z,3.60
2018-09-26T00:40:40.915Z,3.50
2018-09-26T00:43:09.065Z,3.50
2018-09-26T00:45:37.228Z,3.50
2018-09-26T00:48:05.417Z,3.40
2018-09-26T00:50:33.641Z,3.30
2018-09-26T00:53:01.849Z,3.30
2018-09-26T00:55:29.979Z,3.30
2018-09-26T00:57:58.137Z,3.30
2018-09-26T01:00:26.294Z,3.30
2018-09-26T01:02:54.432Z,3.30
2018-09-26T01:05:22.581Z,3.30
2018-09-26T01:07:50.744Z,3.30
2018-09-26T01:10:18.886Z,3.20
2018-09-26T01:12:47.032Z,3.20
2018-09-26T01:15:15.196Z,3.20
2018-09-26T01:17:43.397Z,3.10
2018-09-26T01:20:11.544Z,3.10
2018-09-26T01:22:39.701Z,3.00
2018-09-26T01:25:07.877Z,3.10
2018-09-26T01:27:36.028Z,3.10
2018-09-26T01:30:05.800Z,3.00
2018-09-26T01:32:34.191Z,3.00
2018-09-26T01:35:02.868Z,2.90
2018-09-26T01:37:31.021Z,2.80
2018-09-26T01:39:59.627Z,2.90
2018-09-26T01:42:28.025Z,2.80
2018-09-26T01:44:56.388Z,2.80
2018-09-26T01:47:24.537Z,2.80
2018-09-26T01:49:52.685Z,2.80
2018-09-26T01:54:49.357Z,2.80
2018-09-26T01:59:45.553Z,2.80
2018-09-26T02:07:10.400Z,2.90
2018-09-26T02:12:07.308Z,2.80
2018-09-26T02:14:35.445Z,2.80
2018-09-26T02:19:31.549Z,2.60
2018-09-26T02:21:59.704Z,2.60
2018-09-26T02:24:27.885Z,2.60
2018-09-26T02:26:56.055Z,2.60
2018-09-26T02:29:24.209Z,2.60
2018-09-26T02:31:52.351Z,2.50
2018-09-26T02:34:20.504Z,2.50
2018-09-26T02:36:48.643Z,2.50
2018-09-26T02:39:16.788Z,2.40
2018-09-26T02:41:44.940Z,2.40
2018-09-26T02:44:13.122Z,2.40
2018-09-26T02:49:09.356Z,2.40
2018-09-26T02:51:38.244Z,2.40
2018-09-26T02:54:07.232Z,2.40
2018-09-26T02:56:35.513Z,2.30
2018-09-26T02:59:03.653Z,2.20
2018-09-26T03:01:31.813Z,2.20
2018-09-26T03:03:59.951Z,2.20
2018-09-26T03:06:28.105Z,2.20
2018-09-26T03:08:56.255Z,2.20
2018-09-26T03:11:24.411Z,2.10
2018-09-26T03:13:52.557Z,2.10
2018-09-26T03:16:20.715Z,2.20
2018-09-26T03:18:48.861Z,2.20
2018-09-26T03:21:17.010Z,2.10
2018-09-26T03:23:45.144Z,2.20
2018-09-26T03:26:13.327Z,2.20
2018-09-26T03:28:41.478Z,2.10
2018-09-26T03:31:09.632Z,2.10
2018-09-26T03:33:37.823Z,2.20
2018-09-26T03:36:05.982Z,2.20
2018-09-26T03:38:34.149Z,2.20
2018-09-26T03:41:02.311Z,2.10
2018-09-26T03:43:30.513Z,2.10
2018-09-26T03:45:58.678Z,2.10
2018-09-26T03:48:26.938Z,2.00
2018-09-26T03:50:55.117Z,1.90
2018-09-26T03:53:23.269Z,2.00
2018-09-26T03:55:51.451Z,2.00
2018-09-26T03:58:19.609Z,2.00
2018-09-26T04:00:47.757Z,1.90
2018-09-26T04:03:15.954Z,1.90
2018-09-26T04:05:44.136Z,1.80
2018-09-26T04:08:12.299Z,1.80
2018-09-26T04:10:40.448Z,1.80
2018-09-26T04:13:08.664Z,1.80
2018-09-26T04:15:42.995Z,1.80
2018-09-26T04:18:11.229Z,1.80
2018-09-26T04:20:39.404Z,1.90
2018-09-26T04:23:07.565Z,1.90
2018-09-26T04:25:35.771Z,1.80
2018-09-26T04:28:03.943Z,1.80
2018-09-26T04:30:32.154Z,1.90
2018-09-26T04:33:00.462Z,1.90
2018-09-26T04:35:28.424Z,1.90
2018-09-26T04:37:56.588Z,2.00
2018-09-26T04:40:24.750Z,2.00
2018-09-26T04:42:52.921Z,2.00
2018-09-26T04:45:21.073Z,2.00
2018-09-26T04:47:49.244Z,2.00
2018-09-26T04:50:17.388Z,2.00
2018-09-26T04:52:45.765Z,2.00
2018-09-26T04:55:14.040Z,2.00
2018-09-26T04:57:42.200Z,2.10
2018-09-26T05:00:10.352Z,2.10
2018-09-26T05:02:38.516Z,2.10
2018-09-26T05:05:06.676Z,2.20
2018-09-26T05:07:35.222Z,2.30
2018-09-26T05:10:03.378Z,2.30
2018-09-26T05:12:31.524Z,2.30
2018-09-26T05:14:59.696Z,2.40
2018-09-26T05:17:27.873Z,2.40
2018-09-26T05:19:56.235Z,2.40
2018-09-26T05:22:24.511Z,2.50
2018-09-26T05:24:52.652Z,2.50
2018-09-26T05:27:20.829Z,2.50
2018-09-26T05:29:49.011Z,2.50
2018-09-26T05:32:17.213Z,2.60
2018-09-26T05:34:45.381Z,2.60
2018-09-26T05:37:13.943Z,2.70
2018-09-26T05:39:42.128Z,2.70
2018-09-26T05:42:10.291Z,2.90
2018-09-26T05:44:38.682Z,2.90
2018-09-26T05:47:07.157Z,3.00
2018-09-26T05:49:35.403Z,3.00
2018-09-26T05:52:03.805Z,2.90
2018-09-26T05:54:31.964Z,3.00
2018-09-26T05:57:00.166Z,2.90
2018-09-26T05:59:28.380Z,2.90
2018-09-26T06:01:56.544Z,2.90
2018-09-26T06:04:24.850Z,2.90
2018-09-26T06:06:53.033Z,2.90
2018-09-26T06:09:21.188Z,2.90
2018-09-26T06:11:49.351Z,2.80
2018-09-26T06:14:17.517Z,2.80
2018-09-26T06:16:45.703Z,2.80
2018-09-26T06:19:13.896Z,2.90
2018-09-26T06:21:42.057Z,3.00
2018-09-26T06:24:10.237Z,3.00
2018-09-26T06:26:38.410Z,3.10
2018-09-26T06:29:06.764Z,3.10
2018-09-26T06:31:34.969Z,3.20
2018-09-26T06:34:03.129Z,3.20
2018-09-26T06:36:31.291Z,3.40
2018-09-26T06:38:59.456Z,3.60
2018-09-26T06:41:27.602Z,3.80
2018-09-26T06:43:55.825Z,4.10
2018-09-26T06:46:24.034Z,4.20
2018-09-26T06:48:52.213Z,4.60
2018-09-26T06:51:20.360Z,4.60
2018-09-26T06:53:48.526Z,4.70
2018-09-26T06:56:16.680Z,4.80
2018-09-26T06:58:44.849Z,5.10
2018-09-26T07:01:12.981Z,5.10
2018-09-26T07:03:41.133Z,5.30
2018-09-26T07:06:09.295Z,5.40
2018-09-26T07:09:09.334Z,5.40
2018-09-26T07:11:37.505Z,5.70
2018-09-26T07:14:05.699Z,5.90
2018-09-26T07:16:34.756Z,6.10
2018-09-26T07:19:02.941Z,6.10
2018-09-26T07:21:31.113Z,6.20
2018-09-26T07:23:59.289Z,6.30
2018-09-26T07:26:27.465Z,6.50
2018-09-26T07:28:55.649Z,6.80
2018-09-26T07:31:23.848Z,6.90
2018-09-26T07:33:52.361Z,7.10
2018-09-26T07:36:20.546Z,7.10
2018-09-26T07:38:48.725Z,7.00
2018-09-26T07:41:16.885Z,7.00
2018-09-26T07:43:45.054Z,7.00
2018-09-26T07:46:13.238Z,7.10
2018-09-26T07:48:41.420Z,7.30
2018-09-26T07:51:09.678Z,7.50
2018-09-26T07:53:37.837Z,7.50
2018-09-26T07:56:06.051Z,7.50
2018-09-26T07:58:34.228Z,7.40
2018-09-26T08:01:02.372Z,7.50
2018-09-26T08:03:30.562Z,7.40
2018-09-26T08:05:58.741Z,7.40
2018-09-26T08:08:26.945Z,7.50
2018-09-26T08:10:55.237Z,7.70
2018-09-26T08:13:23.451Z,7.90
2018-09-26T08:15:51.628Z,8.00
2018-09-26T08:18:19.936Z,8.00
2018-09-26T08:20:47.979Z,8.10
2018-09-26T08:23:16.180Z,8.30
2018-09-26T08:25:44.532Z,8.30
2018-09-26T08:28:12.696Z,8.60
2018-09-26T08:30:40.902Z,9.20
2018-09-26T08:33:09.097Z,9.20
2018-09-26T08:35:37.276Z,9.50
2018-09-26T08:38:05.480Z,9.80
2018-09-26T08:40:33.628Z,9.90
2018-09-26T08:43:01.907Z,9.90
2018-09-26T08:45:30.081Z,10.10
2018-09-26T08:47:58.548Z,10.20
2018-09-26T08:50:26.737Z,10.10
2018-09-26T08:52:54.935Z,10.00
2018-09-26T08:55:23.131Z,10.10
2018-09-26T08:57:51.289Z,10.30
2018-09-26T09:00:24.973Z,10.40
2018-09-26T09:05:21.089Z,10.60
2018-09-26T09:07:49.224Z,10.60
2018-09-26T09:10:17.405Z,10.80
2018-09-26T09:12:45.560Z,11.10
2018-09-26T09:15:13.745Z,11.30
2018-09-26T09:17:42.194Z,11.40
2018-09-26T09:20:10.443Z,11.50
2018-09-26T09:22:38.590Z,11.60
2018-09-26T09:25:06.841Z,11.60
2018-09-26T09:27:35.160Z,11.80
2018-09-26T09:30:03.328Z,12.00
2018-09-26T09:32:31.520Z,12.20
2018-09-26T09:34:59.690Z,12.30
2018-09-26T09:37:28.177Z,12.50
2018-09-26T09:39:56.373Z,12.50
2018-09-26T09:42:24.572Z,12.70
2018-09-26T09:44:52.751Z,12.60
2018-09-26T09:47:20.909Z,12.80
2018-09-26T09:49:49.102Z,12.90
2018-09-26T09:52:17.276Z,12.90
2018-09-26T09:54:45.445Z,13.10
2018-09-26T09:57:13.622Z,13.20
2018-09-26T09:59:42.190Z,13.30
2018-09-26T10:02:10.402Z,13.50
2018-09-26T10:04:38.522Z,13.70
2018-09-26T10:07:06.689Z,13.90
2018-09-26T10:09:34.857Z,14.00
2018-09-26T10:12:03.025Z,14.30
2018-09-26T10:14:31.254Z,14.40
2018-09-26T10:16:59.417Z,14.50
2018-09-26T10:19:27.589Z,14.60
2018-09-26T10:21:55.772Z,14.70
2018-09-26T10:24:23.959Z,14.80
2018-09-26T10:26:52.124Z,14.90
2018-09-26T10:29:20.306Z,15.00
2018-09-26T10:31:48.504Z,15.10
2018-09-26T10:34:16.661Z,15.00
2018-09-26T10:36:44.841Z,14.80
2018-09-26T17:41:20.930Z,12.40
2018-09-26T17:43:49.155Z,12.30
2018-09-26T17:46:17.456Z,12.20
2018-09-26T17:51:05.335Z,12.00
2018-09-26T17:53:33.517Z,12.00
2018-09-26T17:56:01.762Z,12.00
2018-09-26T17:58:29.988Z,11.90
2018-09-26T18:00:58.225Z,11.80
2018-09-26T18:03:26.426Z,11.70
2018-09-26T18:05:54.597Z,11.60
2018-09-26T18:08:22.826Z,11.50
2018-09-26T18:10:51.101Z,11.50
2018-09-26T18:13:20.192Z,11.40
2018-09-26T18:15:48.389Z,11.40
2018-09-26T18:18:16.592Z,11.20
2018-09-26T18:20:44.812Z,11.20
2018-09-26T18:23:13.188Z,11.10
2018-09-26T18:25:41.372Z,11.00
2018-09-26T18:28:09.592Z,10.90
2018-09-26T18:30:37.888Z,10.80
2018-09-26T18:33:06.146Z,10.80
2018-09-26T18:35:34.438Z,10.70
2018-09-26T18:38:04.063Z,10.70
2018-09-26T18:40:32.309Z,10.60
2018-09-26T18:43:00.621Z,10.60
2018-09-26T18:45:29.019Z,10.50
2018-09-26T18:47:57.263Z,10.50
2018-09-26T18:50:25.546Z,10.40
2018-09-26T18:52:53.792Z,10.40
2018-09-26T18:55:22.077Z,10.40
2018-09-26T18:57:50.265Z,10.30
2018-09-26T19:00:19.472Z,10.30
2018-09-26T19:02:47.695Z,10.30
2018-09-26T19:05:15.954Z,10.30
2018-09-26T19:07:44.380Z,10.30
2018-09-26T19:10:13.117Z,10.20
2018-09-26T19:12:41.383Z,10.30
2018-09-26T19:15:09.813Z,10.20
2018-09-26T19:17:38.090Z,10.20
2018-09-26T19:20:06.347Z,10.10
2018-09-26T19:22:34.674Z,10.00
2018-09-26T19:25:02.937Z,9.90
2018-09-26T19:27:31.197Z,9.90
2018-09-26T19:29:59.554Z,9.80
2018-09-26T19:32:27.911Z,9.80
2018-09-26T19:34:56.275Z,9.70
2018-09-26T19:37:24.558Z,9.60
2018-09-26T19:39:53.051Z,9.60
2018-09-26T19:42:47.565Z,9.50
2018-09-26T19:45:15.942Z,9.50
2018-09-26T19:47:45.087Z,9.40
2018-09-26T19:50:13.509Z,9.30
2018-09-26T19:52:41.811Z,9.30
2018-09-26T19:55:10.077Z,9.20
2018-09-26T19:57:38.535Z,9.20
2018-09-26T20:00:07.422Z,9.20
2018-09-26T20:02:35.611Z,9.20
2018-09-26T20:05:03.781Z,9.20
2018-09-26T20:07:32.003Z,9.20
2018-09-26T20:10:00.241Z,9.10
2018-09-26T20:12:28.461Z,9.10
2018-09-26T20:14:56.753Z,9.10
2018-09-26T20:17:25.054Z,9.10
2018-09-26T20:19:53.261Z,9.10
2018-09-26T20:22:21.680Z,9.10
2018-09-26T20:24:50.002Z,9.00
2018-09-26T20:27:18.317Z,9.00
2018-09-26T20:29:46.567Z,9.00
2018-09-26T20:32:14.694Z,9.00
2018-09-26T20:34:43.090Z,9.00
2018-09-26T20:37:11.384Z,9.10
2018-09-26T20:39:39.536Z,9.10
2018-09-26T20:42:07.736Z,9.20
2018-09-26T20:44:36.063Z,9.20
2018-09-26T20:47:04.323Z,9.20
2018-09-26T20:49:32.788Z,9.20
2018-09-26T20:52:01.069Z,9.20
2018-09-26T20:54:29.623Z,9.20
2018-09-26T20:56:57.917Z,9.20
2018-09-26T20:59:26.887Z,9.30
2018-09-26T21:01:55.168Z,9.30
2018-09-26T21:04:23.614Z,9.30
2018-09-26T21:06:51.804Z,9.30
2018-09-26T21:09:20.059Z,9.40
2018-09-26T21:11:49.357Z,9.40
2018-09-26T21:14:17.525Z,9.40
2018-09-26T21:16:45.699Z,9.40
2018-09-26T21:19:13.949Z,9.40
2018-09-26T21:21:42.148Z,9.40
2018-09-26T21:24:10.386Z,9.40
2018-09-26T21:26:38.588Z,9.40
2018-09-26T21:29:06.857Z,9.40
2018-09-26T21:31:35.091Z,9.30
2018-09-26T21:34:03.285Z,9.40
2018-09-26T21:36:31.541Z,9.40
2018-09-26T21:38:59.796Z,9.40
2018-09-26T21:41:28.001Z,9.40
2018-09-26T21:43:56.213Z,9.40
2018-09-26T21:46:24.450Z,9.40
2018-09-26T21:48:52.675Z,9.50
2018-09-26T21:51:20.917Z,9.50
2018-09-26T21:53:49.101Z,9.50
2018-09-26T21:56:17.256Z,9.40
2018-09-26T21:58:45.443Z,9.40
2018-09-26T22:01:15.405Z,9.30
2018-09-26T22:03:44.082Z,9.30
2018-09-26T22:06:12.672Z,9.40
2018-09-26T22:08:41.724Z,9.40
2018-09-26T22:11:09.982Z,9.40
2018-09-26T22:13:38.300Z,9.40
2018-09-26T22:16:06.494Z,9.30
2018-09-26T22:18:34.725Z,9.40
2018-09-26T22:21:02.912Z,9.40
2018-09-26T22:23:31.127Z,9.40
2018-09-26T22:25:59.385Z,9.40
2018-09-26T22:28:28.674Z,9.40
2018-09-26T22:30:56.844Z,9.40
2018-09-26T22:33:25.310Z,9.40
2018-09-26T22:35:53.504Z,9.40
2018-09-26T22:38:21.783Z,9.40
2018-09-26T22:40:50.891Z,9.30
2018-09-26T22:43:19.496Z,9.40
2018-09-26T22:45:47.677Z,9.30
2018-09-26T22:48:15.866Z,9.30
2018-09-26T22:50:44.077Z,9.30
2018-09-26T22:53:12.248Z,9.30
2018-09-26T22:55:40.492Z,9.30
2018-09-26T22:58:08.710Z,9.30
2018-09-26T23:00:36.893Z,9.30
2018-09-26T23:03:05.081Z,9.30
2018-09-26T23:05:33.265Z,9.30
2018-09-26T23:08:01.542Z,9.30
2018-09-26T23:10:29.737Z,9.30
2018-09-26T23:12:57.965Z,9.30
2018-09-26T23:15:26.149Z,9.20
2018-09-26T23:17:54.342Z,9.20
2018-09-26T23:20:22.517Z,9.20
2018-09-26T23:22:50.701Z,9.20
2018-09-26T23:25:18.944Z,9.20
2018-09-26T23:27:47.152Z,9.20
2018-09-26T23:30:15.331Z,9.20
2018-09-26T23:32:43.566Z,9.20
2018-09-26T23:35:11.764Z,9.20
2018-09-26T23:37:39.954Z,9.20
2018-09-26T23:40:08.170Z,9.20
2018-09-26T23:42:36.372Z,9.20
2018-09-26T23:45:04.609Z,9.20
2018-09-26T23:47:32.828Z,9.10
2018-09-26T23:50:01.245Z,9.10
2018-09-26T23:52:29.485Z,9.10
2018-09-26T23:54:57.658Z,9.10
2018-09-26T23:57:25.893Z,9.20
2018-09-26T23:59:54.130Z,9.20
